Time;durP1;ratioP1;P1;durP2;ratioP2;P2;SDS_P1;SDS_P2;PMS_P1;PMS_P2;Temp;Humidity;BMP_temperature;BMP_pressure;BME280_temperature;BME280_humidity;BME280_pressure;Samples;Min_cycle;Max_cycle;Signal;HPM_P1;HPM_P2
2023/05/21 00:01:16;;;;;;;4.20;2.30;;;11.40;99.90;;;;;;5009226;28;20261;-77
2023/05/21 00:03:44;;;;;;;5.57;2.50;;;11.40;99.90;;;;;;5019613;28;20251;-76
2023/05/21 00:06:14;;;;;;;6.63;2.80;;;11.30;99.90;;;;;;5011171;28;20259;-76
2023/05/21 00:08:41;;;;;;;4.07;2.60;;;11.30;99.90;;;;;;5015733;28;20838;-76
2023/05/21 00:11:07;;;;;;;5.80;2.80;;;11.30;99.90;;;;;;5012763;28;20573;-77
2023/05/21 00:13:34;;;;;;;4.17;2.43;;;11.20;99.90;;;;;;5017955;28;20591;-77
2023/05/21 00:16:03;;;;;;;5.77;2.80;;;11.20;99.90;;;;;;5010090;28;20228;-76
2023/05/21 00:18:31;;;;;;;5.00;2.87;;;11.20;99.90;;;;;;5015301;28;20226;-77
2023/05/21 00:20:58;;;;;;;6.43;2.67;;;11.10;99.90;;;;;;5016546;28;20225;-77
2023/05/21 00:23:25;;;;;;;4.40;2.23;;;11.10;99.90;;;;;;5013742;28;20232;-77
2023/05/21 00:25:52;;;;;;;4.30;2.30;;;11.00;99.90;;;;;;5013735;28;20221;-77
2023/05/21 00:28:18;;;;;;;6.33;2.67;;;11.00;99.90;;;;;;5013521;28;20612;-77
2023/05/21 00:30:46;;;;;;;4.43;2.60;;;11.00;99.90;;;;;;5019140;28;20799;-76
2023/05/21 00:33:14;;;;;;;9.23;2.90;;;10.90;99.90;;;;;;5027665;28;20223;-77
2023/05/21 00:35:41;;;;;;;6.83;2.77;;;10.90;99.90;;;;;;5009768;28;20745;-77
2023/05/21 00:38:08;;;;;;;5.23;2.40;;;10.80;99.90;;;;;;5013878;28;20224;-76
2023/05/21 00:40:36;;;;;;;5.13;2.50;;;10.80;99.90;;;;;;5013986;28;20703;-76
2023/05/21 00:43:03;;;;;;;5.13;2.67;;;10.80;99.90;;;;;;5013705;28;21010;-76
2023/05/21 00:45:30;;;;;;;6.87;2.80;;;10.70;99.90;;;;;;5016405;28;20229;-76
2023/05/21 00:47:57;;;;;;;4.87;2.43;;;10.80;99.90;;;;;;5012874;28;20785;-76
2023/05/21 00:50:25;;;;;;;5.77;2.60;;;10.70;99.90;;;;;;5012084;28;20235;-76
2023/05/21 00:52:53;;;;;;;4.93;2.83;;;10.70;99.90;;;;;;5008722;28;20316;-75
2023/05/21 00:55:20;;;;;;;6.80;2.60;;;10.70;99.90;;;;;;5009603;28;20300;-75
2023/05/21 00:57:48;;;;;;;5.47;2.40;;;10.60;99.90;;;;;;5029767;28;20291;-76
2023/05/21 01:00:15;;;;;;;5.33;2.77;;;10.60;99.90;;;;;;5029819;28;20780;-76
2023/05/21 01:02:43;;;;;;;3.50;2.40;;;10.60;99.90;;;;;;5011905;28;20323;-76
2023/05/21 01:05:10;;;;;;;4.87;2.60;;;10.60;99.90;;;;;;5016024;28;20220;-76
2023/05/21 01:07:40;;;;;;;5.43;2.53;;;10.50;99.90;;;;;;5011381;28;20234;-76
2023/05/21 01:10:09;;;;;;;6.77;2.60;;;10.50;99.90;;;;;;5014081;28;20256;-76
2023/05/21 01:12:39;;;;;;;4.33;2.50;;;10.50;99.90;;;;;;5014191;28;20224;-76
2023/05/21 01:15:07;;;;;;;6.87;2.70;;;10.50;99.90;;;;;;5007437;28;20225;-77
2023/05/21 01:17:34;;;;;;;6.17;2.77;;;10.50;99.90;;;;;;5015344;28;20219;-77
2023/05/21 01:20:05;;;;;;;4.47;2.30;;;10.50;99.90;;;;;;5011333;28;20223;-76
2023/05/21 01:22:34;;;;;;;4.87;2.50;;;10.50;99.90;;;;;;5009319;28;20227;-77
2023/05/21 01:25:03;;;;;;;5.40;2.53;;;10.50;99.90;;;;;;5007582;28;20330;-77
2023/05/21 01:27:30;;;;;;;6.10;2.33;;;10.50;99.90;;;;;;5011380;28;20237;-77
2023/05/21 01:29:57;;;;;;;4.17;2.30;;;10.50;99.90;;;;;;5009167;28;20223;-77
2023/05/21 01:32:30;;;;;;;5.43;3.07;;;10.50;99.90;;;;;;5010963;28;20252;-77
2023/05/21 01:35:01;;;;;;;5.27;2.20;;;10.50;99.90;;;;;;5009035;28;20236;-77
2023/05/21 01:37:33;;;;;;;4.30;2.30;;;10.50;99.90;;;;;;5014125;28;20241;-76
2023/05/21 01:40:08;;;;;;;5.43;2.53;;;10.50;99.90;;;;;;5011765;28;20225;-76
2023/05/21 01:42:38;;;;;;;3.53;2.40;;;10.50;99.90;;;;;;5012113;28;20981;-76
2023/05/21 01:45:06;;;;;;;5.53;2.60;;;10.50;99.90;;;;;;5010873;28;20225;-76
2023/05/21 01:47:36;;;;;;;5.87;2.73;;;10.50;99.90;;;;;;5007344;28;20332;-76
2023/05/21 01:50:04;;;;;;;6.57;2.73;;;10.50;99.90;;;;;;5015714;28;20869;-76
2023/05/21 01:52:31;;;;;;;5.90;2.30;;;10.50;99.90;;;;;;5013065;28;20718;-77
2023/05/21 01:54:59;;;;;;;5.70;2.40;;;10.50;99.90;;;;;;5012919;28;20216;-77
2023/05/21 01:57:27;;;;;;;4.73;2.47;;;10.50;99.90;;;;;;5009612;28;20233;-76
2023/05/21 01:59:56;;;;;;;8.30;2.73;;;10.50;99.90;;;;;;5006430;28;20235;-77
2023/05/21 02:02:23;;;;;;;4.50;2.20;;;10.40;99.90;;;;;;5024693;23;20871;-95
2023/05/21 02:04:50;;;;;;;5.57;2.57;;;10.40;99.90;;;;;;5034514;28;20234;-95
2023/05/21 02:07:18;;;;;;;4.27;2.30;;;10.50;99.90;;;;;;5053180;28;20230;-95
2023/05/21 02:09:45;;;;;;;4.83;2.53;;;10.40;99.90;;;;;;5033899;28;20729;-94
2023/05/21 02:12:12;;;;;;;7.10;2.40;;;10.40;99.90;;;;;;5059630;28;20238;-95
2023/05/21 02:14:41;;;;;;;6.63;3.03;;;10.40;99.90;;;;;;5068220;28;20323;-96
2023/05/21 02:17:08;;;;;;;4.93;2.50;;;10.50;99.90;;;;;;5036259;28;20601;-94
2023/05/21 02:19:35;;;;;;;4.27;2.40;;;10.40;99.90;;;;;;5036000;28;20227;-93
2023/05/21 02:22:01;;;;;;;6.93;2.43;;;10.40;99.90;;;;;;5024248;28;20689;-95
2023/05/21 02:24:28;;;;;;;6.03;2.40;;;10.40;99.90;;;;;;5021725;28;20325;-94
2023/05/21 02:26:57;;;;;;;5.60;2.53;;;10.40;99.90;;;;;;5017152;28;20233;-94
2023/05/21 02:29:24;;;;;;;3.80;2.27;;;10.40;99.90;;;;;;5006524;28;20283;-95
2023/05/21 02:31:52;;;;;;;6.57;2.53;;;10.30;99.90;;;;;;5030215;28;20220;-94
2023/05/21 02:34:19;;;;;;;5.63;2.63;;;10.30;99.90;;;;;;5009172;28;20321;-94
2023/05/21 02:36:51;;;;;;;10.07;2.70;;;10.30;99.90;;;;;;5008010;28;20227;-95
2023/05/21 02:39:18;;;;;;;6.97;2.67;;;10.30;99.90;;;;;;5008929;28;20596;-95
2023/05/21 02:41:46;;;;;;;5.13;2.37;;;10.30;99.90;;;;;;5022123;28;20307;-95
2023/05/21 02:44:14;;;;;;;5.20;2.50;;;10.20;99.90;;;;;;5007955;28;20225;-95
2023/05/21 02:46:41;;;;;;;6.10;2.97;;;10.20;99.90;;;;;;5027103;28;20275;-95
2023/05/21 02:49:09;;;;;;;4.27;2.80;;;10.20;99.90;;;;;;5013428;28;20232;-95
2023/05/21 02:51:37;;;;;;;4.30;2.73;;;10.20;99.90;;;;;;5026009;28;20582;-95
2023/05/21 02:54:04;;;;;;;3.17;2.40;;;10.10;99.90;;;;;;5009929;28;20227;-96
2023/05/21 02:56:31;;;;;;;7.50;2.93;;;10.10;99.90;;;;;;5011185;28;20230;-95
2023/05/21 02:58:58;;;;;;;5.20;2.83;;;10.10;99.90;;;;;;5010710;28;20242;-95
2023/05/21 03:01:25;;;;;;;5.37;2.73;;;10.10;99.90;;;;;;5026783;28;20229;-95
2023/05/21 03:03:51;;;;;;;7.73;2.87;;;10.00;99.90;;;;;;5012079;28;20217;-95
2023/05/21 03:06:21;;;;;;;8.13;2.77;;;10.00;99.90;;;;;;5022181;28;20220;-95
2023/05/21 03:08:48;;;;;;;5.70;2.87;;;10.00;99.90;;;;;;5008706;28;20231;-95
2023/05/21 03:11:15;;;;;;;5.80;2.77;;;10.00;99.90;;;;;;5019948;28;20224;-95
2023/05/21 03:13:42;;;;;;;5.10;2.80;;;10.00;99.90;;;;;;5030979;28;20256;-96
2023/05/21 03:16:09;;;;;;;4.20;2.50;;;10.00;99.90;;;;;;5026257;28;20239;-95
2023/05/21 03:18:36;;;;;;;6.57;2.83;;;9.90;99.90;;;;;;5027000;28;20232;-96
2023/05/21 03:21:04;;;;;;;6.27;2.90;;;9.90;99.90;;;;;;5008293;28;20252;-94
2023/05/21 03:23:33;;;;;;;6.57;3.03;;;9.90;99.90;;;;;;5019996;28;20235;-94
2023/05/21 03:26:02;;;;;;;5.00;2.80;;;9.90;99.90;;;;;;5007644;28;20218;-94
2023/05/21 03:28:29;;;;;;;5.93;2.87;;;9.90;99.90;;;;;;5008189;28;20287;-94
2023/05/21 03:30:56;;;;;;;5.43;2.77;;;9.90;99.90;;;;;;5022562;28;20278;-95
2023/05/21 03:33:44;;;;;;;7.20;3.00;;;9.90;99.90;;;;;;5019445;28;20232;-94
2023/05/21 03:36:30;;;;;;;5.73;3.13;;;9.90;99.90;;;;;;5024198;28;20230;-94
2023/05/21 03:38:58;;;;;;;5.00;3.07;;;9.80;99.90;;;;;;5019305;28;20226;-95
2023/05/21 03:41:25;;;;;;;7.27;3.23;;;9.90;99.90;;;;;;5047858;28;20255;-96
2023/05/21 03:43:57;;;;;;;6.77;2.93;;;9.80;99.90;;;;;;5032458;28;20224;-96
2023/05/21 03:46:28;;;;;;;7.27;3.47;;;9.80;99.90;;;;;;5037530;28;20318;-96
2023/05/21 03:48:56;;;;;;;6.03;3.20;;;9.80;99.90;;;;;;5044908;28;20316;-95
2023/05/21 03:51:24;;;;;;;4.93;3.00;;;9.80;99.90;;;;;;5033270;28;20232;-95
2023/05/21 03:53:52;;;;;;;6.57;3.30;;;9.90;99.90;;;;;;5038270;28;20333;-96
2023/05/21 03:56:21;;;;;;;7.03;3.30;;;9.90;99.90;;;;;;5037460;28;20296;-95
2023/05/21 03:58:51;;;;;;;7.07;3.07;;;9.90;99.90;;;;;;5030518;28;20212;-95
2023/05/21 04:01:19;;;;;;;3.70;2.93;;;10.00;99.90;;;;;;5037841;28;20217;-96
2023/05/21 04:03:48;;;;;;;5.73;3.70;;;9.90;99.90;;;;;;5039691;28;20205;-96
2023/05/21 04:06:17;;;;;;;8.50;3.37;;;9.90;99.90;;;;;;5042050;28;20208;-96
2023/05/21 04:08:45;;;;;;;7.23;3.13;;;9.90;99.90;;;;;;5053063;28;20225;-96
2023/05/21 04:11:13;;;;;;;6.43;3.20;;;10.00;99.90;;;;;;5043616;28;20230;-96
2023/05/21 04:13:41;;;;;;;8.33;3.60;;;10.00;99.90;;;;;;5025577;28;20320;-95
2023/05/21 04:16:08;;;;;;;4.20;3.00;;;10.00;99.90;;;;;;5062982;22;20285;-82
2023/05/21 04:18:35;;;;;;;8.13;2.80;;;10.10;99.90;;;;;;5020674;28;20219;-82
2023/05/21 04:21:03;;;;;;;9.30;3.90;;;10.10;99.90;;;;;;5018434;28;20215;-81
2023/05/21 04:23:29;;;;;;;6.53;3.47;;;10.20;99.90;;;;;;5002481;28;20618;-81
2023/05/21 04:25:57;;;;;;;7.00;3.40;;;10.20;99.90;;;;;;4990922;28;20237;-81
2023/05/21 04:28:27;;;;;;;5.57;3.40;;;10.30;99.90;;;;;;4997919;28;20293;-82
2023/05/21 04:30:55;;;;;;;5.57;3.13;;;10.30;99.90;;;;;;4996901;28;20314;-84
2023/05/21 04:33:24;;;;;;;7.50;3.10;;;10.40;99.90;;;;;;5000818;28;20256;-79
2023/05/21 04:35:52;;;;;;;7.93;3.17;;;10.50;99.90;;;;;;4999799;28;20221;-79
2023/05/21 04:38:19;;;;;;;6.57;3.47;;;10.50;99.90;;;;;;5014096;28;20657;-79
2023/05/21 04:40:47;;;;;;;7.80;3.70;;;10.60;99.90;;;;;;5010871;28;20232;-79
2023/05/21 04:43:15;;;;;;;6.63;3.23;;;10.70;99.90;;;;;;5018698;28;20226;-79
2023/05/21 04:45:43;;;;;;;5.87;3.20;;;10.80;99.90;;;;;;5022833;28;20212;-80
2023/05/21 04:48:14;;;;;;;8.67;3.60;;;10.80;99.90;;;;;;4997358;28;20221;-80
2023/05/21 04:50:41;;;;;;;9.37;3.80;;;10.90;99.90;;;;;;4992092;28;20283;-79
2023/05/21 04:53:07;;;;;;;8.33;4.23;;;10.90;99.90;;;;;;4997153;28;20555;-80
2023/05/21 04:55:38;;;;;;;5.00;3.57;;;11.00;99.90;;;;;;4996741;28;20232;-79
2023/05/21 04:58:05;;;;;;;6.20;3.53;;;11.00;99.90;;;;;;4994616;28;20217;-80
2023/05/21 05:00:32;;;;;;;8.37;3.70;;;11.10;99.90;;;;;;4992184;28;20318;-80
2023/05/21 05:02:59;;;;;;;6.43;4.03;;;11.20;99.90;;;;;;5004143;28;20233;-81
2023/05/21 05:05:28;;;;;;;6.13;3.70;;;11.20;99.90;;;;;;5002648;28;20247;-80
2023/05/21 05:07:56;;;;;;;7.20;3.80;;;11.30;99.90;;;;;;4993310;28;20219;-81
2023/05/21 05:10:23;;;;;;;5.70;4.37;;;11.40;99.90;;;;;;4992945;28;20242;-81
2023/05/21 05:12:50;;;;;;;7.23;3.67;;;11.40;99.90;;;;;;4988214;28;20229;-82
2023/05/21 05:15:17;;;;;;;8.67;4.20;;;11.50;99.90;;;;;;4993493;28;20293;-82
2023/05/21 05:17:46;;;;;;;8.00;4.13;;;11.60;99.90;;;;;;4994092;28;21112;-81
2023/05/21 05:20:13;;;;;;;5.63;3.83;;;11.70;99.90;;;;;;4990178;28;20233;-81
2023/05/21 05:22:41;;;;;;;8.80;4.30;;;11.80;99.90;;;;;;4994186;28;20890;-82
2023/05/21 05:25:09;;;;;;;7.00;4.50;;;12.00;99.90;;;;;;4989511;28;20314;-81
2023/05/21 05:27:36;;;;;;;5.73;4.00;;;12.10;99.90;;;;;;4990142;28;20906;-81
2023/05/21 05:30:04;;;;;;;7.03;3.83;;;12.20;99.90;;;;;;5000326;28;20223;-82
2023/05/21 05:32:33;;;;;;;4.93;3.67;;;12.30;99.90;;;;;;4995955;28;20764;-81
2023/05/21 05:35:00;;;;;;;6.77;3.93;;;12.40;99.90;;;;;;4994004;28;20233;-82
2023/05/21 05:37:27;;;;;;;7.27;3.70;;;12.50;99.90;;;;;;5002937;28;20227;-82
2023/05/21 05:39:55;;;;;;;5.23;3.80;;;12.70;99.90;;;;;;5008377;28;20215;-82
2023/05/21 05:42:22;;;;;;;6.23;3.87;;;12.70;99.90;;;;;;4995876;28;20236;-82
2023/05/21 05:44:49;;;;;;;7.77;4.50;;;12.70;99.90;;;;;;4996685;28;20243;-82
2023/05/21 05:47:16;;;;;;;6.10;4.00;;;12.80;99.90;;;;;;4995009;28;20814;-81
2023/05/21 05:49:43;;;;;;;7.43;4.50;;;12.90;99.90;;;;;;4983386;28;20218;-80
2023/05/21 05:52:09;;;;;;;8.73;4.30;;;12.90;99.90;;;;;;4970429;28;20249;-81
2023/05/21 05:54:36;;;;;;;6.47;4.07;;;13.00;99.90;;;;;;4980590;28;20358;-81
2023/05/21 05:57:05;;;;;;;7.63;4.50;;;13.20;99.90;;;;;;4983082;28;20308;-81
2023/05/21 05:59:32;;;;;;;8.20;4.80;;;13.20;99.90;;;;;;4978081;28;20229;-80
2023/05/21 06:02:00;;;;;;;8.03;4.57;;;13.40;99.90;;;;;;4963926;28;20285;-81
2023/05/21 06:04:28;;;;;;;8.80;5.27;;;13.50;99.90;;;;;;4973519;28;20234;-80
2023/05/21 06:06:56;;;;;;;9.20;5.03;;;13.70;99.90;;;;;;4988246;28;20300;-80
2023/05/21 06:09:22;;;;;;;6.00;4.37;;;13.80;99.90;;;;;;4982064;28;20233;-81
2023/05/21 06:11:50;;;;;;;7.33;4.93;;;14.00;99.90;;;;;;4994013;28;20229;-80
2023/05/21 06:14:18;;;;;;;5.70;4.37;;;14.10;99.90;;;;;;4996804;28;20224;-80
2023/05/21 06:16:44;;;;;;;9.23;5.30;;;14.20;99.90;;;;;;4993934;28;20225;-80
2023/05/21 06:19:12;;;;;;;7.13;4.63;;;14.40;99.90;;;;;;4998071;28;20271;-80
2023/05/21 06:21:38;;;;;;;7.70;4.50;;;14.50;99.90;;;;;;5018975;28;20232;-81
2023/05/21 06:24:07;;;;;;;7.37;5.10;;;14.60;99.90;;;;;;5001371;28;20261;-80
2023/05/21 06:26:34;;;;;;;7.73;5.10;;;14.70;99.90;;;;;;5008827;28;20233;-80
2023/05/21 06:29:01;;;;;;;8.37;5.77;;;14.90;99.90;;;;;;5010816;28;20812;-81
2023/05/21 06:31:31;;;;;;;8.97;5.20;;;15.00;99.90;;;;;;4996481;28;20245;-81
2023/05/21 06:33:58;;;;;;;9.97;6.17;;;15.10;99.90;;;;;;5006270;28;21071;-81
2023/05/21 06:36:28;;;;;;;9.60;5.40;;;15.30;99.90;;;;;;5000680;28;20225;-80
2023/05/21 06:38:55;;;;;;;8.20;5.03;;;15.50;99.90;;;;;;5005330;28;20242;-81
2023/05/21 06:41:22;;;;;;;6.23;5.40;;;15.70;99.90;;;;;;5005641;28;20256;-82
2023/05/21 06:43:53;;;;;;;9.80;5.20;;;15.90;99.90;;;;;;4993404;28;20692;-83
2023/05/21 06:46:39;;;;;;;6.70;5.63;;;16.10;99.90;;;;;;5004807;28;20410;-80
2023/05/21 06:49:08;;;;;;;8.30;5.60;;;16.30;99.90;;;;;;4989196;28;20569;-82
2023/05/21 06:51:35;;;;;;;10.13;5.77;;;16.40;99.90;;;;;;5000710;28;20292;-82
2023/05/21 06:54:03;;;;;;;7.50;4.97;;;16.50;99.90;;;;;;5006216;28;20212;-82
2023/05/21 06:56:30;;;;;;;8.02;5.88;;;16.60;99.90;;;;;;4999926;28;20843;-81
2023/05/21 06:58:58;;;;;;;10.10;5.68;;;16.70;99.90;;;;;;4995369;28;20225;-81
2023/05/21 07:01:25;;;;;;;7.93;5.03;;;16.90;99.90;;;;;;5000394;28;20260;-82
2023/05/21 07:03:53;;;;;;;7.38;5.60;;;17.00;99.90;;;;;;4997870;28;20226;-82
2023/05/21 07:06:20;;;;;;;7.00;5.37;;;17.10;99.90;;;;;;4990732;28;20345;-83
2023/05/21 07:08:48;;;;;;;11.18;5.90;;;17.30;99.90;;;;;;5002247;28;20228;-83
2023/05/21 07:11:15;;;;;;;10.30;5.97;;;17.50;99.90;;;;;;4991815;28;20301;-82
2023/05/21 07:13:41;;;;;;;9.63;6.03;;;17.70;99.90;;;;;;5003635;28;20232;-81
2023/05/21 07:16:08;;;;;;;8.55;6.13;;;17.90;99.90;;;;;;4991696;28;20229;-81
2023/05/21 07:18:36;;;;;;;11.35;5.85;;;18.10;99.90;;;;;;4998055;28;20750;-82
2023/05/21 07:21:04;;;;;;;6.22;5.40;;;18.30;99.90;;;;;;4993902;28;20237;-81
2023/05/21 07:23:31;;;;;;;8.93;5.90;;;18.50;99.90;;;;;;4997390;28;20249;-81
2023/05/21 07:25:57;;;;;;;10.05;6.10;;;18.70;99.90;;;;;;4994837;28;20765;-81
2023/05/21 07:28:24;;;;;;;9.10;5.90;;;18.90;99.90;;;;;;5000709;28;20711;-81
2023/05/21 07:30:51;;;;;;;7.47;5.95;;;19.00;99.90;;;;;;4998560;28;20234;-82
2023/05/21 07:33:22;;;;;;;8.18;6.78;;;19.20;99.90;;;;;;5000666;28;20232;-80
2023/05/21 07:35:50;;;;;;;18.35;6.07;;;19.30;99.90;;;;;;4999198;28;20982;-81
2023/05/21 07:38:19;;;;;;;9.23;6.35;;;19.50;99.90;;;;;;4998058;28;20235;-81
2023/05/21 07:40:45;;;;;;;9.50;5.63;;;19.60;99.90;;;;;;5000441;28;20352;-82
2023/05/21 07:43:14;;;;;;;7.75;6.18;;;19.70;99.90;;;;;;4996162;28;20236;-81
2023/05/21 07:45:41;;;;;;;8.57;6.65;;;19.80;99.90;;;;;;5002681;28;20308;-81
2023/05/21 07:48:08;;;;;;;10.65;6.70;;;19.90;99.90;;;;;;4981307;28;20224;-81
2023/05/21 07:50:38;;;;;;;9.52;6.65;;;20.00;99.90;;;;;;4978323;28;20218;-80
2023/05/21 07:53:04;;;;;;;9.20;6.55;;;20.00;99.90;;;;;;4978410;28;20850;-80
2023/05/21 07:55:33;;;;;;;9.02;6.47;;;20.10;99.90;;;;;;4979945;28;20222;-82
2023/05/21 07:58:00;;;;;;;7.55;5.78;;;20.10;99.90;;;;;;4975241;28;20749;-82
2023/05/21 08:00:41;;;;;;;9.85;7.32;;;20.30;99.90;;;;;;4972801;28;20232;-81
2023/05/21 08:03:10;;;;;;;10.13;7.47;;;20.50;99.90;;;;;;4972267;28;20234;-84
2023/05/21 08:05:37;;;;;;;8.40;7.00;;;20.80;99.90;;;;;;4996123;28;20237;-83
2023/05/21 08:08:04;;;;;;;10.27;7.13;;;21.20;99.90;;;;;;4987742;28;20419;-84
2023/05/21 08:10:33;;;;;;;9.45;7.45;;;21.50;99.60;;;;;;5004085;28;20240;-83
2023/05/21 08:13:00;;;;;;;10.50;7.28;;;22.00;99.00;;;;;;5002088;28;20769;-82
2023/05/21 08:15:27;;;;;;;11.70;7.30;;;22.30;98.80;;;;;;5015924;28;20898;-83
2023/05/21 08:17:54;;;;;;;9.23;7.88;;;22.70;98.20;;;;;;4992451;28;20230;-83
2023/05/21 08:20:21;;;;;;;9.48;7.55;;;23.00;97.70;;;;;;4985458;28;20337;-83
2023/05/21 08:22:50;;;;;;;8.40;7.40;;;23.30;97.50;;;;;;4985484;28;20718;-83
2023/05/21 08:25:17;;;;;;;10.43;8.30;;;23.50;97.20;;;;;;4972698;28;20222;-83
2023/05/21 08:27:45;;;;;;;8.95;7.85;;;23.80;96.70;;;;;;4978287;28;20767;-83
2023/05/21 08:30:12;;;;;;;11.82;8.15;;;24.00;96.30;;;;;;4988946;28;20359;-83
2023/05/21 08:32:38;;;;;;;10.38;8.25;;;24.20;96.00;;;;;;4983801;28;20301;-85
2023/05/21 08:35:07;;;;;;;8.05;7.25;;;24.40;95.70;;;;;;4986017;28;20267;-83
2023/05/21 08:37:54;;;;;;;9.63;7.55;;;24.50;95.20;;;;;;4978047;28;20231;-83
2023/05/21 08:40:30;;;;;;;8.20;7.13;;;24.60;94.70;;;;;;4986917;28;20312;-83
2023/05/21 08:42:58;;;;;;;9.95;7.82;;;24.60;94.40;;;;;;4976586;28;20245;-84
2023/05/21 08:45:41;;;;;;;11.80;8.30;;;24.40;94.30;;;;;;5002600;28;20248;-83
2023/05/21 08:48:11;;;;;;;8.90;7.80;;;24.30;94.40;;;;;;4995076;28;20226;-83
2023/05/21 08:50:40;;;;;;;11.55;8.18;;;24.20;94.30;;;;;;5025188;28;20225;-83
2023/05/21 08:53:16;;;;;;;9.38;8.38;;;24.20;94.60;;;;;;4991465;28;20617;-84
2023/05/21 08:55:43;;;;;;;10.00;9.00;;;24.20;94.60;;;;;;4995895;28;20241;-83
2023/05/21 08:58:13;;;;;;;9.82;7.85;;;24.10;94.50;;;;;;5000445;28;20860;-83
2023/05/21 09:00:40;;;;;;;11.85;9.32;;;24.00;94.50;;;;;;4996252;28;20225;-84
2023/05/21 09:03:09;;;;;;;9.70;8.70;;;23.90;94.60;;;;;;4991711;28;20731;-83
2023/05/21 09:05:39;;;;;;;10.25;8.77;;;23.80;94.80;;;;;;5001254;28;20244;-85
2023/05/21 09:08:07;;;;;;;9.93;8.48;;;23.60;94.80;;;;;;5006834;28;20225;-83
2023/05/21 09:11:01;;;;;;;11.88;9.40;;;23.60;95.20;;;;;;4981392;28;20268;-83
2023/05/21 09:13:34;;;;;;;10.93;8.88;;;23.60;95.20;;;;;;5004454;28;20231;-83
2023/05/21 09:16:07;;;;;;;10.43;9.27;;;23.50;95.10;;;;;;5010778;28;20229;-83
2023/05/21 09:18:33;;;;;;;10.82;9.50;;;23.60;95.30;;;;;;5015438;28;20632;-82
2023/05/21 09:21:25;;;;;;;11.35;9.68;;;23.70;95.30;;;;;;4986218;28;20235;-83
2023/05/21 09:23:56;;;;;;;10.10;8.63;;;23.70;94.90;;;;;;4980125;28;20233;-83
2023/05/21 09:26:23;;;;;;;12.35;8.93;;;23.70;95.10;;;;;;4995713;28;20688;-83
2023/05/21 09:28:57;;;;;;;10.02;8.52;;;23.60;95.20;;;;;;4983851;28;20226;-82
2023/05/21 09:31:25;;;;;;;11.43;8.75;;;23.60;95.30;;;;;;4978979;28;20285;-83
2023/05/21 09:33:54;;;;;;;10.90;9.25;;;23.50;95.40;;;;;;4984009;28;20223;-82
2023/05/21 09:36:21;;;;;;;10.15;8.98;;;23.50;95.40;;;;;;4984843;28;20766;-83
2023/05/21 09:38:48;;;;;;;12.10;9.30;;;23.50;95.40;;;;;;4985001;28;20229;-83
2023/05/21 09:41:15;;;;;;;10.18;8.45;;;23.50;95.60;;;;;;4986460;28;20237;-83
2023/05/21 09:43:42;;;;;;;9.18;8.27;;;23.60;95.90;;;;;;4980396;28;20230;-83
2023/05/21 09:46:11;;;;;;;12.13;8.85;;;23.60;95.90;;;;;;4987780;28;20245;-83
2023/05/21 09:48:39;;;;;;;8.73;7.75;;;23.80;96.00;;;;;;4996598;28;20430;-83
2023/05/21 09:51:15;;;;;;;11.02;9.45;;;24.00;96.20;;;;;;5011732;28;20271;-84
2023/05/21 09:53:49;;;;;;;11.10;9.23;;;24.20;95.70;;;;;;5018332;28;20253;-83
2023/05/21 09:56:21;;;;;;;10.73;9.18;;;24.40;95.40;;;;;;4983992;28;20214;-83
2023/05/21 09:58:47;;;;;;;12.45;9.43;;;24.60;95.40;;;;;;4994798;28;20319;-83
2023/05/21 10:01:15;;;;;;;13.30;10.02;;;24.90;95.10;;;;;;4991843;28;20230;-83
2023/05/21 10:03:45;;;;;;;9.82;8.82;;;25.00;94.40;;;;;;4995937;28;20731;-83
2023/05/21 10:06:13;;;;;;;10.60;9.50;;;25.20;94.50;;;;;;4990828;28;20230;-83
2023/05/21 10:08:44;;;;;;;12.48;10.30;;;25.40;94.60;;;;;;4977990;28;20329;-82
2023/05/21 10:11:12;;;;;;;13.15;10.07;;;25.60;94.00;;;;;;4982382;28;20238;-84
2023/05/21 10:13:44;;;;;;;11.18;9.55;;;25.80;94.00;;;;;;4981536;28;20247;-83
2023/05/21 10:16:11;;;;;;;12.90;10.15;;;26.00;94.00;;;;;;4986589;28;20230;-83
2023/05/21 10:18:41;;;;;;;11.13;9.63;;;26.20;93.40;;;;;;4983899;28;20229;-84
2023/05/21 10:21:08;;;;;;;10.88;9.73;;;26.50;93.20;;;;;;4968525;28;20229;-82
2023/05/21 10:23:36;;;;;;;11.35;9.95;;;26.60;92.80;;;;;;4992275;28;20244;-83
2023/05/21 10:26:05;;;;;;;10.57;9.48;;;26.70;92.80;;;;;;4977699;28;20222;-83
2023/05/21 10:28:33;;;;;;;12.02;9.98;;;26.90;92.40;;;;;;4985112;28;20237;-83
2023/05/21 10:31:00;;;;;;;10.75;9.63;;;27.10;92.20;;;;;;4979425;28;20230;-84
2023/05/21 10:33:28;;;;;;;11.50;10.30;;;27.20;92.30;;;;;;4998566;28;20229;-83
2023/05/21 10:35:58;;;;;;;11.43;9.90;;;27.30;91.90;;;;;;4984261;28;20237;-83
2023/05/21 10:38:25;;;;;;;10.68;9.35;;;27.50;91.30;;;;;;4981600;28;20237;-82
2023/05/21 10:40:53;;;;;;;9.70;8.70;;;27.60;91.70;;;;;;4985739;28;20226;-84
2023/05/21 10:43:40;;;;;;;10.65;9.60;;;27.80;91.60;;;;;;4992187;28;20222;-84
2023/05/21 10:46:37;;;;;;;10.07;7.65;;;28.00;90.90;;;;;;4973786;28;20227;-83
2023/05/21 10:49:21;;;;;;;9.15;7.50;;;28.30;90.60;;;;;;4985166;28;20740;-83
2023/05/21 10:51:59;;;;;;;8.98;7.93;;;28.60;90.60;;;;;;4981815;28;20984;-83
2023/05/21 10:54:46;;;;;;;8.85;7.90;;;28.90;89.70;;;;;;4972887;28;20643;-83
2023/05/21 10:57:23;;;;;;;9.02;7.03;;;29.20;88.80;;;;;;4984179;28;20230;-81
2023/05/21 10:59:51;;;;;;;9.10;7.38;;;29.40;88.60;;;;;;4981305;28;20238;-80
2023/05/21 11:02:20;;;;;;;8.18;7.40;;;29.60;86.30;;;;;;4990413;28;20238;-80
2023/05/21 11:04:48;;;;;;;10.48;7.80;;;29.60;85.10;;;;;;4994086;28;20226;-81
2023/05/21 11:07:23;;;;;;;9.55;6.78;;;29.60;85.30;;;;;;4976448;28;20230;-80
2023/05/21 11:09:50;;;;;;;10.63;8.02;;;29.60;85.90;;;;;;4980786;28;20209;-80
2023/05/21 11:12:18;;;;;;;10.48;8.00;;;29.70;86.20;;;;;;4993389;28;20237;-81
2023/05/21 11:14:56;;;;;;;9.05;8.13;;;29.90;85.70;;;;;;4980305;28;20227;-80
2023/05/21 11:17:38;;;;;;;8.70;7.50;;;30.10;84.40;;;;;;4983520;28;20230;-80
2023/05/21 11:20:09;;;;;;;8.23;6.90;;;30.30;83.90;;;;;;4980153;28;20327;-80
2023/05/21 11:22:38;;;;;;;9.65;7.55;;;30.40;82.70;;;;;;4986053;28;20226;-80
2023/05/21 11:25:05;;;;;;;11.35;7.30;;;30.50;81.60;;;;;;4974781;28;20232;-80
2023/05/21 11:27:33;;;;;;;11.23;7.45;;;30.50;82.00;;;;;;4992021;28;20835;-80
2023/05/21 11:30:03;;;;;;;8.70;7.30;;;30.50;80.70;;;;;;4979344;28;20226;-80
2023/05/21 11:32:30;;;;;;;8.13;6.70;;;30.60;81.30;;;;;;4974716;28;20254;-81
2023/05/21 11:35:00;;;;;;;10.55;6.15;;;30.60;80.30;;;;;;4975050;28;20227;-81
2023/05/21 11:37:33;;;;;;;8.88;6.85;;;30.60;80.60;;;;;;4987672;28;20218;-80
2023/05/21 11:40:27;;;;;;;10.90;7.25;;;30.60;80.00;;;;;;4986703;28;20291;-81
2023/05/21 11:42:55;;;;;;;8.38;6.70;;;30.60;79.90;;;;;;4979035;28;20309;-80
2023/05/21 11:45:23;;;;;;;10.75;6.90;;;30.60;79.40;;;;;;5001543;28;20700;-81
2023/05/21 11:47:51;;;;;;;8.65;6.55;;;30.50;79.70;;;;;;4969997;28;20242;-81
2023/05/21 11:50:18;;;;;;;8.32;7.13;;;30.50;79.40;;;;;;4977785;28;20227;-80
2023/05/21 11:52:45;;;;;;;8.55;7.32;;;30.40;79.80;;;;;;4980496;28;20635;-80
2023/05/21 11:55:14;;;;;;;7.47;6.47;;;30.50;78.90;;;;;;4978124;28;20227;-80
2023/05/21 11:57:43;;;;;;;8.23;7.15;;;30.40;79.30;;;;;;4996663;28;20221;-81
2023/05/21 12:00:15;;;;;;;8.68;6.82;;;30.40;78.80;;;;;;4982813;28;20234;-80
2023/05/21 12:02:48;;;;;;;9.10;7.15;;;30.40;79.50;;;;;;4989140;28;20746;-80
2023/05/21 12:05:15;;;;;;;9.27;6.82;;;30.40;79.00;;;;;;4981878;28;20345;-80
2023/05/21 12:07:42;;;;;;;9.95;8.05;;;30.60;79.40;;;;;;4980211;28;20233;-80
2023/05/21 12:10:09;;;;;;;10.90;8.10;;;30.60;78.80;;;;;;4982579;28;20224;-81
2023/05/21 12:12:36;;;;;;;10.18;8.02;;;30.60;78.10;;;;;;4971221;28;20237;-81
2023/05/21 12:15:05;;;;;;;8.85;7.93;;;30.60;78.30;;;;;;4975862;28;20793;-80
2023/05/21 12:17:32;;;;;;;10.48;7.85;;;30.50;77.80;;;;;;4975976;28;20232;-81
2023/05/21 12:20:00;;;;;;;8.32;7.53;;;30.50;77.80;;;;;;4981796;28;20262;-80
2023/05/21 12:22:28;;;;;;;8.80;7.43;;;30.30;78.20;;;;;;4973538;28;20230;-81
2023/05/21 12:24:56;;;;;;;9.32;8.05;;;30.20;78.60;;;;;;4979116;28;20237;-81
2023/05/21 12:27:24;;;;;;;8.98;8.10;;;30.10;78.50;;;;;;4987055;28;20233;-81
2023/05/21 12:29:51;;;;;;;8.50;7.60;;;30.00;78.80;;;;;;4977744;28;20240;-81
2023/05/21 12:32:20;;;;;;;8.68;7.57;;;29.90;79.50;;;;;;4989547;28;20255;-81
2023/05/21 12:34:48;;;;;;;8.52;7.63;;;29.90;80.30;;;;;;4979169;28;20633;-81
2023/05/21 12:37:16;;;;;;;8.02;7.22;;;29.90;80.20;;;;;;4979865;28;20232;-81
2023/05/21 12:39:44;;;;;;;9.05;7.43;;;30.00;80.50;;;;;;4986196;28;20908;-81
2023/05/21 12:42:11;;;;;;;10.25;8.35;;;30.20;80.70;;;;;;4983352;28;20340;-83
2023/05/21 12:44:39;;;;;;;8.48;6.75;;;30.20;79.50;;;;;;4993070;28;20229;-77
2023/05/21 12:47:06;;;;;;;10.20;8.02;;;30.30;79.80;;;;;;4995518;28;20229;-79
2023/05/21 12:49:36;;;;;;;9.50;7.50;;;30.40;79.00;;;;;;4999019;28;20781;-79
2023/05/21 12:52:04;;;;;;;8.32;7.28;;;30.40;78.80;;;;;;5000626;28;20611;-79
2023/05/21 12:54:32;;;;;;;10.48;8.25;;;30.30;78.20;;;;;;4994912;28;20700;-79